sensor_id;sensor_type;location;lat;lon;timestamp;temperature;humidity
72919;SHT30;61063;55.700;26.994;2022-12-18T00:05:14;-10.5;84
72919;SHT30;61063;55.700;26.994;2022-12-18T00:10:12;-10.4;83.9
72919;SHT30;61063;55.700;26.994;2022-12-18T00:15:04;-10.4;83.9
72919;SHT30;61063;55.700;26.994;2022-12-18T00:19:52;-10.3;83.5
72919;SHT30;61063;55.700;26.994;2022-12-18T00:24:42;-10.3;83.5
72919;SHT30;61063;55.700;26.994;2022-12-18T00:30:14;-10.5;84.1
72919;SHT30;61063;55.700;26.994;2022-12-18T00:35:12;-10.5;84.4
72919;SHT30;61063;55.700;26.994;2022-12-18T00:40:12;-10.6;84.5
72919;SHT30;61063;55.700;26.994;2022-12-18T00:45:14;-10.5;84.3
72919;SHT30;61063;55.700;26.994;2022-12-18T00:50:12;-10.5;84.3
72919;SHT30;61063;55.700;26.994;2022-12-18T00:54:50;-10.5;84.3
72919;SHT30;61063;55.700;26.994;2022-12-18T01:00:14;-10.2;83.5
72919;SHT30;61063;55.700;26.994;2022-12-18T01:05:12;-10;83
72919;SHT30;61063;55.700;26.994;2022-12-18T01:10:00;-10;83
72919;SHT30;61063;55.700;26.994;2022-12-18T01:14:50;-10;82.8
72919;SHT30;61063;55.700;26.994;2022-12-18T01:19:58;-10.2;82.9
72919;SHT30;61063;55.700;26.994;2022-12-18T01:25:16;-10;83.1
72919;SHT30;61063;55.700;26.994;2022-12-18T01:29:44;-10;83.1
72919;SHT30;61063;55.700;26.994;2022-12-18T01:34:56;-9.8;82.5
72919;SHT30;61063;55.700;26.994;2022-12-18T01:40:14;-10.1;82.9
72919;SHT30;61063;55.700;26.994;2022-12-18T01:44:54;-10.1;82.9
72919;SHT30;61063;55.700;26.994;2022-12-18T01:50:17;-10.3;83.9
72919;SHT30;61063;55.700;26.994;2022-12-18T01:55:17;-10.3;83.8
72919;SHT30;61063;55.700;26.994;2022-12-18T02:00:05;-10.3;83.8
72919;SHT30;61063;55.700;26.994;2022-12-18T02:04:42;-10.1;83.7
72919;SHT30;61063;55.700;26.994;2022-12-18T02:09:55;-10;83
72919;SHT30;61063;55.700;26.994;2022-12-18T02:15:18;-10.1;83.5
72919;SHT30;61063;55.700;26.994;2022-12-18T02:19:45;-10.1;83.5
72919;SHT30;61063;55.700;26.994;2022-12-18T02:25:22;-9.9;83.3
72919;SHT30;61063;55.700;26.994;2022-12-18T02:30:18;-9.8;82.8
72919;SHT30;61063;55.700;26.994;2022-12-18T02:35:19;-9.7;82.5
72919;SHT30;61063;55.700;26.994;2022-12-18T02:40:07;-9.7;82.5
72919;SHT30;61063;55.700;26.994;2022-12-18T02:45:06;-9.8;82.5
72919;SHT30;61063;55.700;26.994;2022-12-18T02:49:58;-9.7;82.5
72919;SHT30;61063;55.700;26.994;2022-12-18T02:54:49;-9.9;82.6
72919;SHT30;61063;55.700;26.994;2022-12-18T03:00:19;-9.8;82.8
72919;SHT30;61063;55.700;26.994;2022-12-18T03:05:05;-9.8;82.8
72919;SHT30;61063;55.700;26.994;2022-12-18T03:10:18;-9.8;82
72919;SHT30;61063;55.700;26.994;2022-12-18T03:14:42;-9.8;82
72919;SHT30;61063;55.700;26.994;2022-12-18T03:19:52;-9.9;82.3
72919;SHT30;61063;55.700;26.994;2022-12-18T03:24:42;-10.2;82.7
72919;SHT30;61063;55.700;26.994;2022-12-18T03:30:16;-10;82.3
72919;SHT30;61063;55.700;26.994;2022-12-18T03:35:18;-10.1;82.4
72919;SHT30;61063;55.700;26.994;2022-12-18T03:40:06;-10.1;82.4
72919;SHT30;61063;55.700;26.994;2022-12-18T03:45:19;-10;82.3
72919;SHT30;61063;55.700;26.994;2022-12-18T03:49:56;-10;82.3
72919;SHT30;61063;55.700;26.994;2022-12-18T03:55:17;-10.2;82.4
72919;SHT30;61063;55.700;26.994;2022-12-18T03:59:44;-10.2;82.4
72919;SHT30;61063;55.700;26.994;2022-12-18T04:04:55;-10.3;82.7
72919;SHT30;61063;55.700;26.994;2022-12-18T04:09:32;-10.4;82.9
72919;SHT30;61063;55.700;26.994;2022-12-18T04:15:18;-10.2;82.4
72919;SHT30;61063;55.700;26.994;2022-12-18T04:20:18;-10.4;82.6
72919;SHT30;61063;55.700;26.994;2022-12-18T04:25:08;-10.4;82.6
72919;SHT30;61063;55.700;26.994;2022-12-18T04:30:08;-10.5;83
72919;SHT30;61063;55.700;26.994;2022-12-18T04:34:56;-10.4;82.9
72919;SHT30;61063;55.700;26.994;2022-12-18T04:40:18;-10.3;82.2
72919;SHT30;61063;55.700;26.994;2022-12-18T04:45:16;-10.1;81.1
72919;SHT30;61063;55.700;26.994;2022-12-18T04:50:18;-10.2;81
72919;SHT30;61063;55.700;26.994;2022-12-18T04:54:56;-10.2;81
72919;SHT30;61063;55.700;26.994;2022-12-18T05:00:19;-10.3;81.5
72919;SHT30;61063;55.700;26.994;2022-12-18T05:05:18;-10.4;82.1
72919;SHT30;61063;55.700;26.994;2022-12-18T05:10:14;-10.5;82.3
72919;SHT30;61063;55.700;26.994;2022-12-18T05:15:08;-10.5;82.3
72919;SHT30;61063;55.700;26.994;2022-12-18T05:20:06;-10.5;82.3
72919;SHT30;61063;55.700;26.994;2022-12-18T05:24:44;-10.5;82.5
72919;SHT30;61063;55.700;26.994;2022-12-18T05:30:05;-10.5;82.2
72919;SHT30;61063;55.700;26.994;2022-12-18T05:35:18;-10.4;82.1
72919;SHT30;61063;55.700;26.994;2022-12-18T05:40:16;-10.3;82
72919;SHT30;61063;55.700;26.994;2022-12-18T05:44:54;-10.3;82
72919;SHT30;61063;55.700;26.994;2022-12-18T05:49:44;-10.2;81.8
72919;SHT30;61063;55.700;26.994;2022-12-18T05:55:19;-10.3;81.5
72919;SHT30;61063;55.700;26.994;2022-12-18T06:00:18;-10.2;81.7
72919;SHT30;61063;55.700;26.994;2022-12-18T06:05:08;-10.2;81.7
72919;SHT30;61063;55.700;26.994;2022-12-18T06:10:06;-10.3;81.8
72919;SHT30;61063;55.700;26.994;2022-12-18T06:14:42;-10.3;82.1
72919;SHT30;61063;55.700;26.994;2022-12-18T06:20:16;-10.2;81.2
72919;SHT30;61063;55.700;26.994;2022-12-18T06:25:18;-10.2;81.4
72919;SHT30;61063;55.700;26.994;2022-12-18T06:30:18;-10.2;81.3
72919;SHT30;61063;55.700;26.994;2022-12-18T06:34:44;-10.2;81.3
72919;SHT30;61063;55.700;26.994;2022-12-18T06:40:16;-10.2;80.6
72919;SHT30;61063;55.700;26.994;2022-12-18T06:45:16;-10.2;80.4
72919;SHT30;61063;55.700;26.994;2022-12-18T06:50:18;-10.1;80
72919;SHT30;61063;55.700;26.994;2022-12-18T06:55:08;-10.1;80
72919;SHT30;61063;55.700;26.994;2022-12-18T06:59:56;-10.2;79.6
72919;SHT30;61063;55.700;26.994;2022-12-18T07:05:18;-10.3;80.2
72919;SHT30;61063;55.700;26.994;2022-12-18T07:10:16;-10.3;80
72919;SHT30;61063;55.700;26.994;2022-12-18T07:15:16;-10.3;79.7
72919;SHT30;61063;55.700;26.994;2022-12-18T07:19:42;-10.3;79.7
72919;SHT30;61063;55.700;26.994;2022-12-18T07:25:08;-10.3;79.4
72919;SHT30;61063;55.700;26.994;2022-12-18T07:29:56;-10.3;79.2
72919;SHT30;61063;55.700;26.994;2022-12-18T07:35:06;-10.3;78.9
72919;SHT30;61063;55.700;26.994;2022-12-18T07:40:18;-10.4;78.8
72919;SHT30;61063;55.700;26.994;2022-12-18T07:44:56;-10.4;78.8
72919;SHT30;61063;55.700;26.994;2022-12-18T07:50:07;-10.3;78.7
72919;SHT30;61063;55.700;26.994;2022-12-18T07:54:32;-10.3;78.4
72919;SHT30;61063;55.700;26.994;2022-12-18T08:00:16;-9.9;77.7
72919;SHT30;61063;55.700;26.994;2022-12-18T08:05:04;-9.9;77.7
72919;SHT30;61063;55.700;26.994;2022-12-18T08:09:32;-9.8;77.4
72919;SHT30;61063;55.700;26.994;2022-12-18T08:14:42;-9.5;76.8
72919;SHT30;61063;55.700;26.994;2022-12-18T08:19:42;-9.4;76.5
72919;SHT30;61063;55.700;26.994;2022-12-18T08:25:16;-9;75.8
72919;SHT30;61063;55.700;26.994;2022-12-18T08:30:16;-8.8;75.1
72919;SHT30;61063;55.700;26.994;2022-12-18T08:35:08;-8.8;75.1
72919;SHT30;61063;55.700;26.994;2022-12-18T08:39:56;-8.6;74.7
72919;SHT30;61063;55.700;26.994;2022-12-18T08:44:46;-8.5;73.7
72919;SHT30;61063;55.700;26.994;2022-12-18T08:50:07;-8.8;73.7
72919;SHT30;61063;55.700;26.994;2022-12-18T08:55:07;-8.9;73.8
72919;SHT30;61063;55.700;26.994;2022-12-18T08:59:44;-9;74.1
72919;SHT30;61063;55.700;26.994;2022-12-18T09:04:54;-9;74.5
72919;SHT30;61063;55.700;26.994;2022-12-18T09:10:19;-8.4;73.5
72919;SHT30;61063;55.700;26.994;2022-12-18T09:15:18;-8.2;73.3
72919;SHT30;61063;55.700;26.994;2022-12-18T09:19:44;-8.2;73.3
72919;SHT30;61063;55.700;26.994;2022-12-18T09:25:06;-8.1;73
72919;SHT30;61063;55.700;26.994;2022-12-18T09:29:44;-7.8;72.8
72919;SHT30;61063;55.700;26.994;2022-12-18T09:34:32;-7.6;72.3
72919;SHT30;61063;55.700;26.994;2022-12-18T09:40:09;-7.4;72.2
72919;SHT30;61063;55.700;26.994;2022-12-18T09:45:05;-7.6;71.9
72919;SHT30;61063;55.700;26.994;2022-12-18T09:49:43;-7.7;72.6
72919;SHT30;61063;55.700;26.994;2022-12-18T09:54:44;-7.8;73
72919;SHT30;61063;55.700;26.994;2022-12-18T10:00:15;-7.7;73.9
72919;SHT30;61063;55.700;26.994;2022-12-18T10:05:15;-7.3;73.5
72919;SHT30;61063;55.700;26.994;2022-12-18T10:09:41;-7.3;73.5
72919;SHT30;61063;55.700;26.994;2022-12-18T10:15:07;-7;72.6
72919;SHT30;61063;55.700;26.994;2022-12-18T10:19:54;-6.9;72.7
72919;SHT30;61063;55.700;26.994;2022-12-18T10:25:19;-6.8;72.3
72919;SHT30;61063;55.700;26.994;2022-12-18T10:30:08;-6.8;72.3
72919;SHT30;61063;55.700;26.994;2022-12-18T10:35:08;-6.8;72.6
72919;SHT30;61063;55.700;26.994;2022-12-18T10:40:12;-6.8;73.3
72919;SHT30;61063;55.700;26.994;2022-12-18T10:44:55;-6.5;73.4
72919;SHT30;61063;55.700;26.994;2022-12-18T10:50:18;-6.3;73
72919;SHT30;61063;55.700;26.994;2022-12-18T10:55:15;-6.2;72.7
72919;SHT30;61063;55.700;26.994;2022-12-18T10:59:49;-6.2;72.7
72919;SHT30;61063;55.700;26.994;2022-12-18T11:05:21;-6.2;72.9
72919;SHT30;61063;55.700;26.994;2022-12-18T11:09:59;-6.1;73.1
72919;SHT30;61063;55.700;26.994;2022-12-18T11:15:18;-5.9;72.9
72919;SHT30;61063;55.700;26.994;2022-12-18T11:20:05;-5.9;72.9
72919;SHT30;61063;55.700;26.994;2022-12-18T11:25:05;-5.9;73.3
72919;SHT30;61063;55.700;26.994;2022-12-18T11:30:20;-6.2;72.9
72919;SHT30;61063;55.700;26.994;2022-12-18T11:34:56;-6.2;72.9
72919;SHT30;61063;55.700;26.994;2022-12-18T11:40:17;-6.6;73.3
72919;SHT30;61063;55.700;26.994;2022-12-18T11:45:23;-6.7;73.3
72919;SHT30;61063;55.700;26.994;2022-12-18T11:49:44;-6.7;73.3
72919;SHT30;61063;55.700;26.994;2022-12-18T11:55:10;-7.1;74.3
72919;SHT30;61063;55.700;26.994;2022-12-18T11:59:33;-7.2;74.8
72919;SHT30;61063;55.700;26.994;2022-12-18T12:04:48;-7.2;75.1
72919;SHT30;61063;55.700;26.994;2022-12-18T12:10:13;-7;74.9
72919;SHT30;61063;55.700;26.994;2022-12-18T12:15:10;-7.1;75
72919;SHT30;61063;55.700;26.994;2022-12-18T12:20:20;-7.5;76.2
72919;SHT30;61063;55.700;26.994;2022-12-18T12:24:58;-7.5;76.2
72919;SHT30;61063;55.700;26.994;2022-12-18T12:30:18;-7.5;77.3
72919;SHT30;61063;55.700;26.994;2022-12-18T12:35:22;-7.5;77.4
72919;SHT30;61063;55.700;26.994;2022-12-18T12:40:18;-7.5;77.7
72919;SHT30;61063;55.700;26.994;2022-12-18T12:45:11;-7.5;77.7
72919;SHT30;61063;55.700;26.994;2022-12-18T12:50:11;-7.5;78
72919;SHT30;61063;55.700;26.994;2022-12-18T12:54:47;-7.6;78.2
72919;SHT30;61063;55.700;26.994;2022-12-18T13:00:10;-7.6;78.3
72919;SHT30;61063;55.700;26.994;2022-12-18T13:05:19;-7.7;79.1
72919;SHT30;61063;55.700;26.994;2022-12-18T13:10:14;-7.7;79.1
72919;SHT30;61063;55.700;26.994;2022-12-18T13:14:58;-7.7;79.3
72919;SHT30;61063;55.700;26.994;2022-12-18T13:20:11;-7.8;79.6
72919;SHT30;61063;55.700;26.994;2022-12-18T13:25:38;-7.8;79.8
72919;SHT30;61063;55.700;26.994;2022-12-18T13:29:45;-7.7;80
72919;SHT30;61063;55.700;26.994;2022-12-18T13:35:40;-7.6;80.1
72919;SHT30;61063;55.700;26.994;2022-12-18T13:40:45;-7.3;80.4
72919;SHT30;61063;55.700;26.994;2022-12-18T13:45:40;-7.4;80.9
72919;SHT30;61063;55.700;26.994;2022-12-18T13:50:20;-7.4;81.1
72919;SHT30;61063;55.700;26.994;2022-12-18T13:55:18;-7.4;81.3
72919;SHT30;61063;55.700;26.994;2022-12-18T13:59:55;-7.4;81.3
72919;SHT30;61063;55.700;26.994;2022-12-18T14:04:55;-7.5;81
72919;SHT30;61063;55.700;26.994;2022-12-18T14:10:11;-7.7;81.2
72919;SHT30;61063;55.700;26.994;2022-12-18T14:15:09;-7.9;81.6
72919;SHT30;61063;55.700;26.994;2022-12-18T14:19:43;-8;81.9
72919;SHT30;61063;55.700;26.994;2022-12-18T14:24:34;-8;82.1
72919;SHT30;61063;55.700;26.994;2022-12-18T14:29:43;-8.2;82.4
72919;SHT30;61063;55.700;26.994;2022-12-18T14:35:19;-8.2;82.8
72919;SHT30;61063;55.700;26.994;2022-12-18T14:40:19;-8.3;83.1
72919;SHT30;61063;55.700;26.994;2022-12-18T14:45:36;-8.3;83.1
72919;SHT30;61063;55.700;26.994;2022-12-18T14:49:43;-8.3;83.2
72919;SHT30;61063;55.700;26.994;2022-12-18T14:54:55;-8.3;83.1
72919;SHT30;61063;55.700;26.994;2022-12-18T15:00:10;-8.3;83.2
72919;SHT30;61063;55.700;26.994;2022-12-18T15:05:16;-8.3;83.1
72919;SHT30;61063;55.700;26.994;2022-12-18T15:10:00;-8.4;83.1
72919;SHT30;61063;55.700;26.994;2022-12-18T15:14:43;-8.4;83.2
72919;SHT30;61063;55.700;26.994;2022-12-18T15:19:58;-8.5;83
72919;SHT30;61063;55.700;26.994;2022-12-18T15:25:23;-8.5;83.2
72919;SHT30;61063;55.700;26.994;2022-12-18T15:30:19;-8.4;83.1
72919;SHT30;61063;55.700;26.994;2022-12-18T15:35:18;-8.4;83.4
72919;SHT30;61063;55.700;26.994;2022-12-18T15:40:18;-8.4;83.6
72919;SHT30;61063;55.700;26.994;2022-12-18T15:44:55;-8.4;83.6
72919;SHT30;61063;55.700;26.994;2022-12-18T15:50:09;-8.4;83.8
72919;SHT30;61063;55.700;26.994;2022-12-18T15:55:10;-8.5;83.7
72919;SHT30;61063;55.700;26.994;2022-12-18T15:59:45;-8.5;83.9
72919;SHT30;61063;55.700;26.994;2022-12-18T16:04:57;-8.5;84.2
72919;SHT30;61063;55.700;26.994;2022-12-18T16:10:19;-8.5;84.7
72919;SHT30;61063;55.700;26.994;2022-12-18T16:14:57;-8.5;84.7
72919;SHT30;61063;55.700;26.994;2022-12-18T16:20:18;-8.4;85.1
72919;SHT30;61063;55.700;26.994;2022-12-18T16:25:20;-8.3;85.3
72919;SHT30;61063;55.700;26.994;2022-12-18T16:29:55;-8.3;85.3
72919;SHT30;61063;55.700;26.994;2022-12-18T16:34:59;-8.3;85.4
72919;SHT30;61063;55.700;26.994;2022-12-18T16:39:59;-8.3;85.4
72919;SHT30;61063;55.700;26.994;2022-12-18T16:45:11;-8.2;85.5
72919;SHT30;61063;55.700;26.994;2022-12-18T16:49:45;-8.1;85.3
72919;SHT30;61063;55.700;26.994;2022-12-18T16:54:55;-7.9;85.3
72919;SHT30;61063;55.700;26.994;2022-12-18T16:59:57;-7.9;85.5
72919;SHT30;61063;55.700;26.994;2022-12-18T17:04:45;-7.9;85.9
72919;SHT30;61063;55.700;26.994;2022-12-18T17:10:15;-7.7;86.2
72919;SHT30;61063;55.700;26.994;2022-12-18T17:15:19;-7.6;86.4
72919;SHT30;61063;55.700;26.994;2022-12-18T17:19:55;-7.6;86.4
72919;SHT30;61063;55.700;26.994;2022-12-18T17:24:53;-7.5;86.7
72919;SHT30;61063;55.700;26.994;2022-12-18T17:30:07;-7.4;86.8
72919;SHT30;61063;55.700;26.994;2022-12-18T17:35:09;-7.3;86.9
72919;SHT30;61063;55.700;26.994;2022-12-18T17:39:45;-7.2;87
72919;SHT30;61063;55.700;26.994;2022-12-18T17:45:09;-7.1;87.2
72919;SHT30;61063;55.700;26.994;2022-12-18T17:50:09;-7;87.1
72919;SHT30;61063;55.700;26.994;2022-12-18T17:54:55;-6.8;87.2
72919;SHT30;61063;55.700;26.994;2022-12-18T18:00:20;-6.6;87
72919;SHT30;61063;55.700;26.994;2022-12-18T18:04:55;-6.6;87
72919;SHT30;61063;55.700;26.994;2022-12-18T18:09:57;-6.5;87.1
72919;SHT30;61063;55.700;26.994;2022-12-18T18:14:45;-6.4;86.9
72919;SHT30;61063;55.700;26.994;2022-12-18T18:20:09;-6.3;86.8
72919;SHT30;61063;55.700;26.994;2022-12-18T18:25:17;-6.3;86.8
72919;SHT30;61063;55.700;26.994;2022-12-18T18:30:19;-6.3;86.5
72919;SHT30;61063;55.700;26.994;2022-12-18T18:35:07;-6.3;86.5
72919;SHT30;61063;55.700;26.994;2022-12-18T18:39:57;-6.2;86.6
72919;SHT30;61063;55.700;26.994;2022-12-18T18:45:17;-6;86.4
72919;SHT30;61063;55.700;26.994;2022-12-18T18:50:19;-5.9;86.4
72919;SHT30;61063;55.700;26.994;2022-12-18T18:54:33;-5.9;86.4
72919;SHT30;61063;55.700;26.994;2022-12-18T18:59:55;-5.9;86.4
72919;SHT30;61063;55.700;26.994;2022-12-18T19:05:15;-5.8;86.2
72919;SHT30;61063;55.700;26.994;2022-12-18T19:10:07;-5.8;86.2
72919;SHT30;61063;55.700;26.994;2022-12-18T19:15:15;-5.9;86.4
72919;SHT30;61063;55.700;26.994;2022-12-18T19:19:53;-5.9;86.4
72919;SHT30;61063;55.700;26.994;2022-12-18T19:25:09;-5.9;86.2
72919;SHT30;61063;55.700;26.994;2022-12-18T19:30:09;-5.9;85.8
72919;SHT30;61063;55.700;26.994;2022-12-18T19:34:57;-5.9;85.8
72919;SHT30;61063;55.700;26.994;2022-12-18T19:40:05;-5.9;86.2
72919;SHT30;61063;55.700;26.994;2022-12-18T19:44:57;-5.9;86.4
72919;SHT30;61063;55.700;26.994;2022-12-18T19:49:55;-5.8;86.5
72919;SHT30;61063;55.700;26.994;2022-12-18T19:54:45;-5.8;86.4
72919;SHT30;61063;55.700;26.994;2022-12-18T20:00:09;-5.8;86.5
72919;SHT30;61063;55.700;26.994;2022-12-18T20:05:17;-5.8;86.7
72919;SHT30;61063;55.700;26.994;2022-12-18T20:09:57;-5.8;86.7
72919;SHT30;61063;55.700;26.994;2022-12-18T20:15:09;-5.7;86.7
72919;SHT30;61063;55.700;26.994;2022-12-18T20:20:09;-5.7;86.5
72919;SHT30;61063;55.700;26.994;2022-12-18T20:24:45;-5.7;86.6
72919;SHT30;61063;55.700;26.994;2022-12-18T20:30:19;-5.6;86.6
72919;SHT30;61063;55.700;26.994;2022-12-18T20:34:45;-5.6;86.6
72919;SHT30;61063;55.700;26.994;2022-12-18T20:39:41;-5.6;86.3
72919;SHT30;61063;55.700;26.994;2022-12-18T20:44:45;-5.6;86.2
72919;SHT30;61063;55.700;26.994;2022-12-18T20:50:09;-5.6;85.9
72919;SHT30;61063;55.700;26.994;2022-12-18T20:55:19;-5.4;85.6
72919;SHT30;61063;55.700;26.994;2022-12-18T21:00:20;-5.4;85.3
72919;SHT30;61063;55.700;26.994;2022-12-18T21:05:07;-5.4;85.3
72919;SHT30;61063;55.700;26.994;2022-12-18T21:10:07;-5.3;85.1
72919;SHT30;61063;55.700;26.994;2022-12-18T21:14:45;-5.3;84.9
72919;SHT30;61063;55.700;26.994;2022-12-18T21:20:17;-5.1;84.5
72919;SHT30;61063;55.700;26.994;2022-12-18T21:25:19;-5.1;84.4
72919;SHT30;61063;55.700;26.994;2022-12-18T21:29:57;-5.1;84.4
72919;SHT30;61063;55.700;26.994;2022-12-18T21:35:19;-5;84.3
72919;SHT30;61063;55.700;26.994;2022-12-18T21:40:09;-5;84.3
72919;SHT30;61063;55.700;26.994;2022-12-18T21:45:17;-5.2;84.3
72919;SHT30;61063;55.700;26.994;2022-12-18T21:49:43;-5.2;84.3
72919;SHT30;61063;55.700;26.994;2022-12-18T21:55:05;-5.3;84.5
72919;SHT30;61063;55.700;26.994;2022-12-18T22:00:06;-5.3;84.4
72919;SHT30;61063;55.700;26.994;2022-12-18T22:04:55;-5.3;84.4
72919;SHT30;61063;55.700;26.994;2022-12-18T22:10:15;-5.3;84.5
72919;SHT30;61063;55.700;26.994;2022-12-18T22:14:53;-5.3;84.5
72919;SHT30;61063;55.700;26.994;2022-12-18T22:19:53;-5.3;84.4
72919;SHT30;61063;55.700;26.994;2022-12-18T22:24:41;-5.3;84.4
72919;SHT30;61063;55.700;26.994;2022-12-18T22:30:13;-5.3;84.2
72919;SHT30;61063;55.700;26.994;2022-12-18T22:35:11;-5.4;84.1
72919;SHT30;61063;55.700;26.994;2022-12-18T22:40:11;-5.5;84.1
72919;SHT30;61063;55.700;26.994;2022-12-18T22:45:05;-5.5;84.1
72919;SHT30;61063;55.700;26.994;2022-12-18T22:50:01;-5.6;84.1
72919;SHT30;61063;55.700;26.994;2022-12-18T22:55:01;-5.6;84.3
72919;SHT30;61063;55.700;26.994;2022-12-18T23:00:11;-5.6;84.3
72919;SHT30;61063;55.700;26.994;2022-12-18T23:04:49;-5.6;84.3
72919;SHT30;61063;55.700;26.994;2022-12-18T23:09:51;-5.6;84.1
72919;SHT30;61063;55.700;26.994;2022-12-18T23:15:15;-5.6;83.8
72919;SHT30;61063;55.700;26.994;2022-12-18T23:20:13;-5.6;83.6
72919;SHT30;61063;55.700;26.994;2022-12-18T23:25:15;-5.6;83.4
72919;SHT30;61063;55.700;26.994;2022-12-18T23:29:33;-5.6;83.4
72919;SHT30;61063;55.700;26.994;2022-12-18T23:35:04;-5.6;83.3
72919;SHT30;61063;55.700;26.994;2022-12-18T23:40:03;-5.6;83.1
72919;SHT30;61063;55.700;26.994;2022-12-18T23:45:13;-5.7;83
72919;SHT30;61063;55.700;26.994;2022-12-18T23:50:05;-5.7;83
72919;SHT30;61063;55.700;26.994;2022-12-18T23:55:05;-5.7;83.1
72919;SHT30;61063;55.700;26.994;2022-12-18T23:59:43;-5.7;83.2
